Mount Etna, Indiana
Current Conditions -  °F | °C
As of 9:15 AM on Monday 22 Dec 2014 (Local Time) from KHHG Reporting Station
Haze Haze  
Wind Chill: 23°   Ceiling: 4800
Heat Index: 29°   Visibility: 5mi
Dew Point: 27°   Wind: 6mph
Humidity: 90%   Direction: 110°ESE
Pressure: 30"   Gusts: NA
Location:  40.9238°N, 85.5001°W
Report Text: KHHG 221415Z AUTO 11005KT 5SM BR OVC048 M02/M03 A3000 RMK AO2 T10161030
Loading
Personal Weather Stations






























Interactive Weather Map New forecast layout! Learn more

10-Day Weather Forecast

Advertisements
Track Severe Weather on mobile